createdAt,value
2018-07-16T05:04:31.097Z,2.93
2018-07-16T05:09:36.745Z,3.80
2018-07-16T05:14:41.448Z,4.00
2018-07-16T05:19:46.345Z,4.30
2018-07-16T05:24:51.033Z,3.07
2018-07-16T05:29:55.709Z,2.83
2018-07-16T05:35:00.394Z,3.13
2018-07-16T05:40:05.079Z,3.80
2018-07-16T05:45:09.635Z,4.30
2018-07-16T05:50:14.926Z,3.70
2018-07-16T05:55:19.601Z,3.10
2018-07-16T06:00:24.163Z,3.70
2018-07-16T06:05:28.967Z,2.30
2018-07-16T06:10:33.648Z,2.03
2018-07-16T06:15:38.568Z,2.30
2018-07-16T06:20:43.376Z,3.87
2018-07-16T06:25:48.174Z,2.23
2018-07-16T06:30:55.736Z,2.53
2018-07-16T06:36:00.792Z,3.20
2018-07-16T06:41:20.403Z,3.07
2018-07-16T06:46:25.037Z,3.10
2018-07-16T06:51:29.707Z,2.50
2018-07-16T06:56:34.391Z,2.37
2018-07-16T07:01:39.308Z,2.47
2018-07-16T07:06:44.228Z,2.00
2018-07-16T07:11:49.091Z,2.40
2018-07-16T07:16:53.833Z,1.90
2018-07-16T07:21:58.637Z,2.00
2018-07-16T07:27:03.558Z,2.10
2018-07-16T07:32:08.481Z,2.00
2018-07-16T07:37:13.048Z,2.30
2018-07-16T07:42:17.727Z,2.00
2018-07-16T07:47:22.648Z,1.40
2018-07-16T07:52:27.691Z,2.10
2018-07-16T07:57:32.491Z,2.20
2018-07-16T08:02:52.293Z,2.40
2018-07-16T08:08:34.106Z,1.83
2018-07-16T08:13:56.791Z,1.93
2018-07-16T08:19:49.984Z,1.80
2018-07-16T08:25:03.222Z,2.80
2018-07-16T08:30:08.289Z,2.13
2018-07-16T08:35:14.189Z,2.70
2018-07-16T08:40:19.072Z,2.10
2018-07-16T08:45:23.874Z,2.67
2018-07-16T08:50:28.792Z,2.50
2018-07-16T08:55:33.835Z,2.73
2018-07-16T09:00:38.646Z,2.63
2018-07-16T09:05:43.698Z,2.30
2018-07-16T09:10:48.537Z,2.70
2018-07-16T09:15:53.521Z,2.23
2018-07-16T09:20:58.203Z,2.47
2018-07-16T09:26:02.895Z,2.37
2018-07-16T09:31:07.864Z,2.53
2018-07-16T09:36:14.170Z,2.03
2018-07-16T09:41:18.974Z,2.10
2018-07-16T09:46:24.631Z,2.20
2018-07-16T09:51:29.934Z,1.73
2018-07-16T09:56:35.474Z,1.70
2018-07-16T10:01:44.539Z,1.37
2018-07-16T10:06:49.341Z,2.13
2018-07-16T10:11:53.905Z,1.80
2018-07-16T10:16:59.078Z,1.87
2018-07-16T10:22:04.109Z,1.90
2018-07-16T10:27:09.512Z,1.60
2018-07-16T10:32:14.592Z,1.60
2018-07-16T10:37:19.603Z,1.73
2018-07-16T10:43:02.084Z,1.70
2018-07-16T10:48:14.800Z,1.43
2018-07-16T10:53:20.721Z,1.30
2018-07-16T10:58:25.487Z,1.40
2018-07-16T11:03:30.528Z,1.50
2018-07-16T11:08:35.510Z,1.40
2018-07-16T11:13:40.890Z,1.50
2018-07-16T11:25:03.894Z,1.60
2018-07-16T11:30:10.392Z,1.47
2018-07-16T11:35:21.338Z,1.47
2018-07-16T11:40:26.221Z,1.57
2018-07-16T11:45:31.142Z,1.60
2018-07-16T11:50:36.669Z,1.60
2018-07-16T11:55:41.582Z,1.70
2018-07-16T12:00:46.512Z,1.60
2018-07-16T12:06:07.882Z,1.33
2018-07-16T12:11:29.964Z,1.33
2018-07-16T12:22:41.600Z,1.30
2018-07-16T12:27:47.161Z,1.33
2018-07-16T12:32:52.089Z,1.57
2018-07-16T12:37:56.960Z,1.30
2018-07-16T12:43:03.207Z,1.50
2018-07-16T12:54:10.693Z,1.30
2018-07-16T12:59:15.695Z,1.30
2018-07-16T13:04:20.623Z,1.33
2018-07-16T13:09:26.497Z,1.30
2018-07-16T13:14:32.035Z,1.53
2018-07-16T13:19:37.177Z,1.27
2018-07-16T13:24:41.667Z,1.20
2018-07-16T13:29:47.573Z,1.37
2018-07-16T13:34:53.281Z,1.37
2018-07-16T13:39:58.186Z,1.00
2018-07-16T13:45:04.202Z,1.50
2018-07-16T13:50:10.124Z,1.23
2018-07-16T13:55:15.237Z,1.10
2018-07-16T14:00:20.033Z,1.30
2018-07-16T14:05:25.078Z,1.03
2018-07-16T14:10:29.963Z,1.10
2018-07-16T14:15:34.676Z,1.10
2018-07-16T14:20:39.491Z,1.17
2018-07-16T14:25:45.603Z,1.47
2018-07-16T14:30:51.485Z,1.13
2018-07-16T14:35:56.528Z,1.20
2018-07-16T14:41:01.809Z,1.37
2018-07-16T14:46:06.867Z,1.53
2018-07-16T14:51:11.791Z,1.30
2018-07-16T14:56:16.942Z,1.40
2018-07-16T15:01:21.755Z,1.47
2018-07-16T15:06:26.297Z,1.10
2018-07-16T15:11:31.342Z,1.10
2018-07-16T15:16:43.876Z,1.10
2018-07-16T15:21:48.993Z,1.30
2018-07-16T15:26:54.027Z,1.00
2018-07-16T15:31:59.679Z,1.10
2018-07-16T15:37:04.648Z,1.20
2018-07-16T15:42:09.402Z,1.37
2018-07-16T15:47:14.251Z,0.90
2018-07-16T15:52:19.240Z,1.20
2018-07-16T15:57:24.171Z,0.90
2018-07-16T16:02:29.020Z,1.00
2018-07-16T16:07:34.019Z,1.37
2018-07-16T16:12:38.803Z,1.30
2018-07-16T16:17:43.604Z,1.60
2018-07-16T16:22:48.772Z,1.50
2018-07-16T16:27:54.049Z,1.33
2018-07-16T16:33:06.602Z,1.30
2018-07-16T16:38:11.714Z,1.40
2018-07-16T16:43:16.502Z,1.30
2018-07-16T16:48:21.557Z,1.60
2018-07-16T16:53:26.704Z,1.57
2018-07-16T16:58:32.196Z,1.60
2018-07-16T17:03:37.172Z,1.20
2018-07-16T17:08:42.072Z,1.30
2018-07-16T17:13:46.269Z,1.33
2018-07-16T17:18:51.429Z,1.20
2018-07-16T17:23:56.050Z,2.00
2018-07-16T17:29:00.914Z,1.60
2018-07-16T17:34:05.248Z,2.60
2018-07-16T17:39:13.647Z,1.60
2018-07-16T17:44:21.325Z,1.70
2018-07-16T17:49:26.126Z,2.10
2018-07-16T17:54:31.044Z,1.50
2018-07-16T17:59:37.292Z,1.20
2018-07-16T18:04:44.012Z,1.30
2018-07-16T18:09:51.512Z,1.47
2018-07-16T18:14:56.258Z,1.60
2018-07-16T18:20:02.016Z,1.50
2018-07-16T18:25:10.565Z,1.40
2018-07-16T18:30:14.883Z,1.60
2018-07-16T18:35:19.793Z,1.90
2018-07-16T18:40:24.594Z,1.83
2018-07-16T18:45:34.945Z,1.87
2018-07-16T18:50:42.089Z,1.83
2018-07-16T18:55:49.549Z,1.50
2018-07-16T19:00:53.652Z,1.70
2018-07-16T19:05:59.874Z,1.50
2018-07-16T19:11:06.118Z,1.40
2018-07-16T19:16:10.987Z,1.50
2018-07-16T19:21:17.403Z,1.60
2018-07-16T19:26:23.043Z,1.53
2018-07-16T19:31:29.644Z,1.53
2018-07-16T19:36:34.723Z,1.40
2018-07-16T19:41:39.369Z,1.30
2018-07-16T19:46:44.290Z,1.30
2018-07-16T19:57:05.900Z,1.73
2018-07-16T20:02:11.297Z,1.70
2018-07-16T20:07:16.049Z,2.00
2018-07-16T20:12:34.822Z,1.80
2018-07-16T20:17:39.623Z,2.03
2018-07-16T20:22:44.443Z,2.20
2018-07-16T20:27:49.946Z,1.97
2018-07-16T20:32:54.418Z,1.83
2018-07-16T20:37:58.972Z,2.40
2018-07-16T20:43:04.241Z,1.90
2018-07-16T20:48:09.158Z,2.20
2018-07-16T20:53:13.479Z,2.10
2018-07-16T20:58:18.158Z,2.83
2018-07-16T21:03:23.215Z,2.90
2018-07-16T21:08:27.903Z,2.97
2018-07-16T21:13:32.807Z,2.43
2018-07-16T21:18:38.328Z,2.17
2018-07-16T21:23:43.145Z,2.63
2018-07-16T21:28:47.935Z,2.30
2018-07-16T21:33:52.789Z,2.33
2018-07-16T21:38:57.801Z,2.67
2018-07-16T21:44:02.626Z,2.23
2018-07-16T21:49:07.144Z,2.10
2018-07-16T21:54:11.705Z,2.50
2018-07-16T21:59:16.502Z,2.37
2018-07-16T22:04:21.192Z,2.20
2018-07-16T22:09:26.473Z,1.97
2018-07-16T22:14:31.030Z,2.37
2018-07-16T22:19:36.550Z,2.40
2018-07-16T22:24:41.478Z,2.30
2018-07-16T22:29:46.159Z,2.30
2018-07-16T22:34:51.077Z,2.20
2018-07-16T22:39:56.007Z,2.07
2018-07-16T22:45:00.802Z,2.40
2018-07-16T22:50:05.845Z,2.30
2018-07-16T22:55:10.772Z,2.20
2018-07-16T23:00:15.687Z,1.93
2018-07-16T23:05:32.068Z,2.20
2018-07-16T23:10:38.130Z,2.13
2018-07-16T23:15:45.453Z,2.33
2018-07-16T23:20:50.141Z,3.50
2018-07-16T23:25:55.780Z,2.60
2018-07-16T23:31:01.418Z,2.90
2018-07-16T23:36:06.226Z,2.70
2018-07-16T23:41:10.909Z,2.80
2018-07-16T23:46:16.546Z,2.50
2018-07-16T23:51:21.468Z,2.60
2018-07-16T23:56:26.393Z,2.97
